Time;durP1;ratioP1;P1;durP2;ratioP2;P2;SDS_P1;SDS_P2;PMS_P1;PMS_P2;Temp;Humidity;BMP_temperature;BMP_pressure;BME280_temperature;BME280_humidity;BME280_pressure;Samples;Min_cycle;Max_cycle;Signal;HPM_P1;HPM_P2
2023/03/26 00:01:06;;;;;;;0.50;0.50;;;;;;;;;;5136354;27;20635;-82
2023/03/26 00:03:33;;;;;;;0.70;0.70;;;;;;;;;;5136269;27;20188;-82
2023/03/26 00:06:06;;;;;;;0.60;0.60;;;;;;;;;;5136539;27;20183;-82
2023/03/26 00:08:33;;;;;;;0.70;0.70;;;;;;;;;;5136146;27;20519;-82
2023/03/26 00:11:00;;;;;;;0.60;0.60;;;;;;;;;;5136577;27;20666;-81
2023/03/26 00:13:26;;;;;;;0.60;0.60;;;;;;;;;;5127207;27;20190;-82
2023/03/26 00:15:52;;;;;;;0.70;0.70;;;;;;;;;;5115795;28;20185;-81
2023/03/26 00:18:23;;;;;;;0.60;0.60;;;;;;;;;;5115480;28;20188;-82
2023/03/26 00:20:50;;;;;;;0.70;0.70;;;;;;;;;;5115870;28;20181;-82
2023/03/26 00:23:16;;;;;;;0.70;0.70;;;;;;;;;;5115193;28;20211;-82
2023/03/26 00:25:44;;;;;;;0.70;0.70;;;;;;;;;;5114632;28;20177;-82
2023/03/26 00:28:10;;;;;;;0.70;0.70;;;;;;;;;;5114747;28;20582;-81
2023/03/26 00:30:40;;;;;;;0.60;0.60;;;;;;;;;;5115452;28;20179;-81
2023/03/26 00:33:06;;;;;;;0.63;0.63;;;;;;;;;;5114758;28;20605;-82
2023/03/26 00:35:35;;;;;;;0.60;0.60;;;;;;;;;;5116163;28;20618;-81
2023/03/26 00:38:00;;;;;;;0.60;0.60;;;;;;;;;;5114158;28;20615;-81
2023/03/26 00:40:28;;;;;;;0.70;0.70;;;;;;;;;;5114884;28;20260;-82
2023/03/26 00:42:54;;;;;;;0.60;0.60;;;;;;;;;;5114509;28;20345;-82
2023/03/26 00:45:21;;;;;;;0.67;0.67;;;;;;;;;;5114805;28;20173;-82
2023/03/26 00:47:47;;;;;;;0.80;0.80;;;;;;;;;;5115343;28;20181;-81
2023/03/26 00:50:15;;;;;;;0.60;0.60;;;;;;;;;;5115036;28;20183;-82
2023/03/26 00:52:45;;;;;;;0.77;0.77;;;;;;;;;;5116033;28;20220;-81
2023/03/26 00:55:11;;;;;;;0.60;0.60;;;;;;;;;;5120406;28;20172;-81
2023/03/26 00:57:39;;;;;;;0.70;0.70;;;;;;;;;;5117669;28;20196;-82
2023/03/26 01:00:10;;;;;;;0.67;0.67;;;;;;;;;;5116026;28;20170;-81
2023/03/26 01:02:36;;;;;;;0.70;0.70;;;;;;;;;;5116184;28;20241;-82
2023/03/26 01:05:24;;;;;;;0.80;0.80;;;;;;;;;;5116282;28;20173;-82
2023/03/26 01:07:50;;;;;;;0.70;0.70;;;;;;;;;;5114027;28;20266;-82
2023/03/26 01:10:16;;;;;;;0.70;0.70;;;;;;;;;;5117192;28;20177;-82
2023/03/26 01:12:42;;;;;;;0.70;0.70;;;;;;;;;;5115438;28;20213;-82
2023/03/26 01:15:09;;;;;;;0.70;0.70;;;;;;;;;;5117436;28;20173;-83
2023/03/26 01:17:36;;;;;;;0.60;0.60;;;;;;;;;;5117784;28;20197;-81
2023/03/26 01:20:05;;;;;;;0.70;0.70;;;;;;;;;;5129877;28;20194;-83
2023/03/26 01:22:35;;;;;;;0.70;0.70;;;;;;;;;;5135705;28;20191;-84
2023/03/26 01:25:02;;;;;;;0.63;0.63;;;;;;;;;;5134427;28;20233;-80
2023/03/26 01:27:28;;;;;;;0.70;0.70;;;;;;;;;;5133737;28;20217;-82
2023/03/26 01:29:55;;;;;;;0.60;0.60;;;;;;;;;;5134618;28;20176;-82
2023/03/26 01:32:33;;;;;;;0.50;0.50;;;;;;;;;;5134647;28;20234;-83
2023/03/26 01:35:11;;;;;;;0.60;0.60;;;;;;;;;;5133439;28;20173;-82
2023/03/26 01:37:40;;;;;;;0.70;0.70;;;;;;;;;;5118377;28;20184;-83
2023/03/26 01:40:16;;;;;;;0.60;0.60;;;;;;;;;;5118333;28;20165;-83
2023/03/26 01:42:51;;;;;;;0.60;0.60;;;;;;;;;;5117242;28;20199;-83
2023/03/26 01:45:20;;;;;;;0.70;0.70;;;;;;;;;;5118437;28;20635;-83
2023/03/26 01:47:47;;;;;;;0.60;0.60;;;;;;;;;;5123458;28;20178;-82
2023/03/26 01:50:13;;;;;;;0.53;0.53;;;;;;;;;;5118447;28;20226;-83
2023/03/26 01:52:39;;;;;;;0.70;0.70;;;;;;;;;;5116771;28;20213;-83
2023/03/26 01:55:07;;;;;;;0.63;0.63;;;;;;;;;;5116867;28;20709;-82
2023/03/26 01:57:36;;;;;;;0.60;0.60;;;;;;;;;;5116024;28;20192;-83
2023/03/26 02:00:10;;;;;;;0.70;0.70;;;;;;;;;;5118050;28;20200;-83
2023/03/26 02:02:54;;;;;;;0.60;0.60;;;;;;;;;;5119497;28;20177;-83
2023/03/26 02:05:23;;;;;;;0.60;0.60;;;;;;;;;;5120426;28;20179;-83
2023/03/26 02:08:08;;;;;;;0.60;0.60;;;;;;;;;;5119719;28;20172;-83
2023/03/26 02:10:45;;;;;;;0.57;0.57;;;;;;;;;;5120328;28;20173;-83
2023/03/26 02:13:12;;;;;;;0.70;0.70;;;;;;;;;;5118982;28;20201;-82
2023/03/26 02:15:39;;;;;;;0.60;0.60;;;;;;;;;;5120187;28;20180;-82
2023/03/26 02:18:05;;;;;;;0.60;0.60;;;;;;;;;;5119378;28;20200;-83
2023/03/26 02:20:31;;;;;;;0.60;0.60;;;;;;;;;;5119661;28;20234;-82
2023/03/26 02:22:58;;;;;;;0.63;0.63;;;;;;;;;;5118980;28;20211;-84
2023/03/26 02:25:24;;;;;;;0.57;0.57;;;;;;;;;;5119722;28;20226;-83
2023/03/26 02:27:51;;;;;;;0.70;0.70;;;;;;;;;;5119656;28;20173;-84
2023/03/26 02:30:20;;;;;;;0.70;0.70;;;;;;;;;;5119178;28;20547;-81
2023/03/26 02:32:46;;;;;;;0.70;0.70;;;;;;;;;;5119067;28;20243;-82
2023/03/26 02:35:12;;;;;;;0.80;0.80;;;;;;;;;;5118646;28;20227;-82
2023/03/26 02:37:40;;;;;;;0.60;0.60;;;;;;;;;;5119401;28;20181;-83
2023/03/26 02:40:10;;;;;;;0.53;0.53;;;;;;;;;;5119362;28;20184;-82
2023/03/26 02:42:36;;;;;;;0.70;0.70;;;;;;;;;;5117010;28;20195;-82
2023/03/26 02:45:03;;;;;;;0.70;0.70;;;;;;;;;;5118372;28;20181;-81
2023/03/26 02:47:29;;;;;;;0.70;0.70;;;;;;;;;;5138444;28;20184;-84
2023/03/26 02:49:55;;;;;;;0.60;0.60;;;;;;;;;;5139078;28;20195;-82
2023/03/26 02:52:21;;;;;;;0.70;0.70;;;;;;;;;;5139360;28;20225;-84
2023/03/26 02:54:47;;;;;;;0.60;0.60;;;;;;;;;;5132805;28;20205;-83
2023/03/26 02:57:13;;;;;;;0.60;0.60;;;;;;;;;;5120320;28;20284;-83
2023/03/26 02:59:39;;;;;;;0.70;0.70;;;;;;;;;;5119456;28;20546;-83
2023/03/26 03:02:05;;;;;;;0.60;0.60;;;;;;;;;;5125413;28;20177;-83
2023/03/26 03:04:31;;;;;;;0.70;0.70;;;;;;;;;;5129815;28;20257;-81
2023/03/26 03:06:58;;;;;;;0.60;0.60;;;;;;;;;;5130227;28;20169;-82
2023/03/26 03:09:24;;;;;;;0.70;0.70;;;;;;;;;;5129872;28;20177;-83
2023/03/26 03:11:51;;;;;;;0.60;0.60;;;;;;;;;;5126649;28;20269;-82
2023/03/26 03:14:17;;;;;;;0.70;0.70;;;;;;;;;;5136143;28;20293;-81
2023/03/26 03:16:43;;;;;;;0.57;0.57;;;;;;;;;;5136526;28;20169;-81
2023/03/26 03:19:10;;;;;;;0.50;0.50;;;;;;;;;;5136729;28;20168;-82
2023/03/26 03:21:36;;;;;;;0.60;0.60;;;;;;;;;;5136674;28;20169;-81
2023/03/26 03:24:02;;;;;;;0.63;0.63;;;;;;;;;;5125572;28;20267;-82
2023/03/26 03:26:28;;;;;;;0.67;0.67;;;;;;;;;;5118751;28;20631;-82
2023/03/26 03:28:56;;;;;;;0.80;0.80;;;;;;;;;;5118480;28;20177;-82
2023/03/26 03:31:23;;;;;;;0.70;0.70;;;;;;;;;;5117681;28;20252;-82
2023/03/26 03:33:49;;;;;;;0.60;0.60;;;;;;;;;;5116269;28;20211;-82
2023/03/26 03:36:22;;;;;;;0.70;0.70;;;;;;;;;;5115979;28;20698;-82
2023/03/26 03:38:49;;;;;;;0.70;0.70;;;;;;;;;;5116067;28;20600;-81
2023/03/26 03:41:17;;;;;;;0.70;0.70;;;;;;;;;;5115781;28;20260;-82
2023/03/26 03:43:43;;;;;;;0.60;0.60;;;;;;;;;;5115489;28;20201;-82
2023/03/26 03:46:09;;;;;;;0.63;0.63;;;;;;;;;;5116109;28;20259;-83
2023/03/26 03:48:37;;;;;;;0.60;0.60;;;;;;;;;;5116818;28;20231;-82
2023/03/26 03:51:04;;;;;;;0.60;0.60;;;;;;;;;;5118128;28;20227;-82
2023/03/26 03:53:30;;;;;;;0.60;0.60;;;;;;;;;;5116965;28;20189;-81
2023/03/26 03:55:56;;;;;;;0.63;0.63;;;;;;;;;;5118232;28;20188;-81
2023/03/26 04:01:12;;;;;;;0.60;0.60;;;;;;;;;;5102175;22;20239;-81
2023/03/26 04:03:38;;;;;;;0.60;0.60;;;;;;;;;;5055298;28;20217;-81
2023/03/26 04:06:09;;;;;;;0.50;0.50;;;;;;;;;;5056089;28;20233;-81
2023/03/26 04:08:36;;;;;;;0.70;0.70;;;;;;;;;;5055709;28;20179;-81
2023/03/26 04:11:02;;;;;;;0.60;0.60;;;;;;;;;;5055653;28;20673;-81
2023/03/26 04:13:28;;;;;;;0.70;0.70;;;;;;;;;;5055070;28;20199;-82
2023/03/26 04:15:54;;;;;;;0.60;0.60;;;;;;;;;;5055409;28;20179;-79
2023/03/26 04:18:21;;;;;;;0.70;0.70;;;;;;;;;;5055013;28;20556;-81
2023/03/26 04:20:48;;;;;;;0.67;0.67;;;;;;;;;;5053790;28;20179;-80
2023/03/26 04:23:14;;;;;;;0.70;0.70;;;;;;;;;;5053496;28;20199;-80
2023/03/26 04:25:42;;;;;;;0.60;0.60;;;;;;;;;;5054085;28;20183;-80
2023/03/26 04:28:10;;;;;;;0.63;0.63;;;;;;;;;;5055536;28;20243;-80
2023/03/26 04:30:37;;;;;;;0.67;0.67;;;;;;;;;;5059634;28;20175;-80
2023/03/26 04:33:05;;;;;;;0.60;0.60;;;;;;;;;;5061281;28;20563;-80
2023/03/26 04:35:33;;;;;;;0.67;0.67;;;;;;;;;;5062553;28;20175;-80
2023/03/26 04:38:00;;;;;;;0.70;0.70;;;;;;;;;;5043553;28;20179;-80
2023/03/26 04:40:29;;;;;;;0.70;0.70;;;;;;;;;;5062515;28;20243;-81
2023/03/26 04:42:58;;;;;;;0.70;0.70;;;;;;;;;;5059787;28;20206;-81
2023/03/26 04:45:24;;;;;;;0.70;0.70;;;;;;;;;;5062595;28;20187;-80
2023/03/26 04:47:50;;;;;;;0.70;0.70;;;;;;;;;;5068074;28;20185;-80
2023/03/26 04:50:16;;;;;;;0.77;0.77;;;;;;;;;;5067372;28;20167;-80
2023/03/26 04:52:42;;;;;;;0.60;0.60;;;;;;;;;;5064761;28;20313;-81
2023/03/26 04:55:27;;;;;;;0.70;0.70;;;;;;;;;;5060027;28;20677;-80
2023/03/26 04:57:54;;;;;;;0.63;0.63;;;;;;;;;;5054731;28;20601;-81
2023/03/26 05:00:21;;;;;;;0.60;0.60;;;;;;;;;;5054871;28;20252;-80
2023/03/26 05:02:49;;;;;;;0.70;0.70;;;;;;;;;;5054922;28;20682;-80
2023/03/26 05:05:15;;;;;;;0.70;0.70;;;;;;;;;;5063738;28;20175;-78
2023/03/26 05:07:41;;;;;;;0.70;0.70;;;;;;;;;;5064024;28;20175;-79
2023/03/26 05:10:07;;;;;;;0.60;0.60;;;;;;;;;;5064697;28;20185;-79
2023/03/26 05:12:34;;;;;;;0.70;0.70;;;;;;;;;;5063724;28;20211;-78
2023/03/26 05:15:00;;;;;;;0.73;0.73;;;;;;;;;;5064108;28;20175;-79
2023/03/26 05:17:29;;;;;;;0.87;0.87;;;;;;;;;;5057149;28;20179;-79
2023/03/26 05:19:55;;;;;;;0.70;0.70;;;;;;;;;;5053183;28;20295;-80
2023/03/26 05:22:21;;;;;;;0.70;0.70;;;;;;;;;;5053407;28;20175;-78
2023/03/26 05:24:47;;;;;;;0.70;0.70;;;;;;;;;;5053112;28;20198;-79
2023/03/26 05:27:19;;;;;;;0.70;0.70;;;;;;;;;;5052405;28;20265;-80
2023/03/26 05:29:45;;;;;;;0.70;0.70;;;;;;;;;;5052546;28;20191;-79
2023/03/26 05:32:11;;;;;;;0.70;0.70;;;;;;;;;;5052373;28;20215;-80
2023/03/26 05:34:40;;;;;;;0.70;0.70;;;;;;;;;;5054793;28;20344;-81
2023/03/26 05:37:08;;;;;;;0.70;0.70;;;;;;;;;;5057606;28;20175;-81
2023/03/26 05:39:34;;;;;;;0.70;0.70;;;;;;;;;;5057700;28;20175;-81
2023/03/26 05:42:00;;;;;;;0.70;0.70;;;;;;;;;;5056955;28;20194;-80
2023/03/26 05:44:26;;;;;;;0.60;0.60;;;;;;;;;;5056583;28;20199;-80
2023/03/26 05:46:52;;;;;;;0.73;0.73;;;;;;;;;;5057107;28;20634;-80
2023/03/26 05:49:18;;;;;;;0.80;0.80;;;;;;;;;;5056920;28;20175;-81
2023/03/26 05:51:44;;;;;;;0.70;0.70;;;;;;;;;;5056838;28;20564;-80
2023/03/26 05:54:11;;;;;;;0.50;0.50;;;;;;;;;;5056188;28;20610;-81
2023/03/26 05:56:36;;;;;;;0.73;0.73;;;;;;;;;;5056769;28;20179;-80
2023/03/26 05:59:02;;;;;;;0.70;0.70;;;;;;;;;;5057389;28;20190;-80
2023/03/26 06:01:28;;;;;;;0.77;0.77;;;;;;;;;;5057330;28;20270;-81
2023/03/26 06:03:54;;;;;;;0.63;0.63;;;;;;;;;;5057631;28;20191;-81
2023/03/26 06:06:20;;;;;;;0.70;0.70;;;;;;;;;;5058108;28;20269;-79
2023/03/26 06:08:51;;;;;;;0.60;0.60;;;;;;;;;;5057171;28;20179;-80
2023/03/26 06:11:19;;;;;;;0.60;0.60;;;;;;;;;;5056615;28;20211;-80
2023/03/26 06:13:45;;;;;;;0.60;0.60;;;;;;;;;;5057064;28;20199;-81
2023/03/26 06:16:12;;;;;;;0.70;0.70;;;;;;;;;;5056285;28;20632;-79
2023/03/26 06:18:38;;;;;;;0.70;0.70;;;;;;;;;;5056349;28;20179;-80
2023/03/26 06:21:04;;;;;;;0.70;0.70;;;;;;;;;;5056469;28;20597;-79
2023/03/26 06:23:30;;;;;;;0.80;0.80;;;;;;;;;;5056011;28;20199;-80
2023/03/26 06:25:56;;;;;;;0.70;0.70;;;;;;;;;;5056298;28;20639;-80
2023/03/26 06:28:22;;;;;;;0.67;0.67;;;;;;;;;;5055301;28;20183;-79
2023/03/26 06:30:49;;;;;;;0.70;0.70;;;;;;;;;;5055374;28;20175;-79
2023/03/26 06:33:15;;;;;;;0.70;0.70;;;;;;;;;;5056649;28;20206;-81
2023/03/26 06:35:42;;;;;;;0.70;0.70;;;;;;;;;;5059004;28;20552;-80
2023/03/26 06:38:09;;;;;;;0.70;0.70;;;;;;;;;;5059928;28;20190;-79
2023/03/26 06:40:35;;;;;;;0.70;0.70;;;;;;;;;;5055717;28;20218;-80
2023/03/26 06:43:01;;;;;;;0.70;0.70;;;;;;;;;;5054874;28;20198;-81
2023/03/26 06:45:27;;;;;;;0.60;0.60;;;;;;;;;;5054083;28;20186;-81
2023/03/26 06:47:54;;;;;;;0.60;0.60;;;;;;;;;;5055733;28;20258;-79
2023/03/26 06:50:20;;;;;;;0.60;0.60;;;;;;;;;;5054060;28;20228;-80
2023/03/26 06:52:46;;;;;;;0.80;0.80;;;;;;;;;;5055206;28;20219;-81
2023/03/26 06:55:12;;;;;;;0.70;0.70;;;;;;;;;;5055694;28;20253;-81
2023/03/26 06:57:38;;;;;;;0.70;0.70;;;;;;;;;;5055804;28;20194;-82
2023/03/26 07:00:05;;;;;;;0.70;0.70;;;;;;;;;;5055802;28;20301;-81
2023/03/26 07:02:32;;;;;;;0.50;0.50;;;;;;;;;;5055584;28;20443;-81
2023/03/26 07:04:57;;;;;;;0.70;0.70;;;;;;;;;;5059395;28;20602;-80
2023/03/26 07:07:24;;;;;;;0.60;0.60;;;;;;;;;;5061502;28;20175;-80
2023/03/26 07:09:50;;;;;;;0.70;0.70;;;;;;;;;;5063717;28;20194;-80
2023/03/26 07:12:17;;;;;;;0.60;0.60;;;;;;;;;;5061128;28;20269;-81
2023/03/26 07:14:43;;;;;;;0.70;0.70;;;;;;;;;;5055094;28;20199;-81
2023/03/26 07:17:09;;;;;;;0.80;0.80;;;;;;;;;;5056493;28;20690;-81
2023/03/26 07:19:35;;;;;;;0.70;0.70;;;;;;;;;;5056617;28;20316;-81
2023/03/26 07:22:01;;;;;;;0.70;0.70;;;;;;;;;;5057294;28;20215;-80
2023/03/26 07:24:27;;;;;;;0.60;0.60;;;;;;;;;;5055135;28;20191;-81
2023/03/26 07:27:12;;;;;;;0.70;0.70;;;;;;;;;;5057982;28;20206;-82
2023/03/26 07:29:58;;;;;;;0.70;0.70;;;;;;;;;;5057368;28;20175;-81
2023/03/26 07:32:28;;;;;;;0.70;0.70;;;;;;;;;;5057019;28;20233;-80
2023/03/26 07:35:12;;;;;;;0.70;0.70;;;;;;;;;;5057082;28;20250;-81
2023/03/26 07:37:44;;;;;;;0.70;0.70;;;;;;;;;;5056080;28;20242;-80
2023/03/26 07:40:40;;;;;;;0.60;0.60;;;;;;;;;;5054010;28;20171;-81
2023/03/26 07:43:13;;;;;;;0.70;0.70;;;;;;;;;;5044033;28;20204;-80
2023/03/26 07:45:41;;;;;;;0.60;0.60;;;;;;;;;;5056882;28;20178;-80
2023/03/26 07:48:18;;;;;;;0.70;0.70;;;;;;;;;;5057966;28;20257;-82
2023/03/26 07:50:45;;;;;;;0.60;0.60;;;;;;;;;;5058234;28;20187;-78
2023/03/26 07:53:11;;;;;;;0.70;0.70;;;;;;;;;;5054794;28;20257;-79
2023/03/26 07:55:52;;;;;;;0.63;0.63;;;;;;;;;;5054430;28;20175;-80
2023/03/26 07:58:24;;;;;;;0.70;0.70;;;;;;;;;;5051884;28;20294;-79
2023/03/26 08:00:59;;;;;;;0.70;0.70;;;;;;;;;;5051065;28;20191;-79
2023/03/26 08:03:27;;;;;;;0.70;0.70;;;;;;;;;;5051319;28;20572;-79
2023/03/26 08:06:08;;;;;;;0.80;0.80;;;;;;;;;;5053692;28;20182;-80
2023/03/26 08:08:38;;;;;;;0.60;0.60;;;;;;;;;;5052800;28;20171;-79
2023/03/26 08:11:11;;;;;;;0.70;0.70;;;;;;;;;;5053677;28;20210;-80
2023/03/26 08:13:44;;;;;;;0.60;0.60;;;;;;;;;;5055775;28;20202;-80
2023/03/26 08:16:14;;;;;;;0.70;0.70;;;;;;;;;;5058769;28;20214;-79
2023/03/26 08:19:03;;;;;;;0.70;0.70;;;;;;;;;;5055918;28;20549;-80
2023/03/26 08:21:38;;;;;;;0.53;0.53;;;;;;;;;;5056758;28;20221;-79
2023/03/26 08:24:22;;;;;;;0.60;0.60;;;;;;;;;;5055793;28;20259;-80
2023/03/26 08:26:50;;;;;;;0.60;0.60;;;;;;;;;;5059230;28;20187;-79
2023/03/26 08:29:27;;;;;;;0.60;0.60;;;;;;;;;;5056248;28;20179;-81
2023/03/26 08:31:54;;;;;;;0.70;0.70;;;;;;;;;;5056011;28;20225;-81
2023/03/26 08:34:20;;;;;;;0.70;0.70;;;;;;;;;;5056352;28;20661;-81
2023/03/26 08:36:46;;;;;;;0.70;0.70;;;;;;;;;;5057254;28;20205;-80
2023/03/26 08:39:13;;;;;;;0.67;0.67;;;;;;;;;;5057965;28;20193;-80
2023/03/26 08:41:42;;;;;;;0.63;0.63;;;;;;;;;;5056602;28;20186;-80
2023/03/26 08:44:07;;;;;;;0.60;0.60;;;;;;;;;;5056938;28;20685;-80
2023/03/26 08:46:47;;;;;;;0.77;0.77;;;;;;;;;;5055861;28;20210;-79
2023/03/26 08:49:19;;;;;;;0.60;0.60;;;;;;;;;;5055078;28;20171;-80
2023/03/26 08:51:48;;;;;;;0.70;0.70;;;;;;;;;;5055077;28;20248;-79
2023/03/26 08:54:27;;;;;;;0.70;0.70;;;;;;;;;;5053694;28;20219;-80
2023/03/26 08:56:56;;;;;;;0.70;0.70;;;;;;;;;;5054466;28;20261;-78
2023/03/26 08:59:34;;;;;;;0.60;0.60;;;;;;;;;;5062507;28;20250;-78
2023/03/26 09:02:19;;;;;;;0.60;0.60;;;;;;;;;;5061902;28;20265;-79
2023/03/26 09:05:03;;;;;;;0.70;0.70;;;;;;;;;;5057197;28;20205;-80
2023/03/26 09:07:44;;;;;;;0.70;0.70;;;;;;;;;;5055775;28;20175;-79
2023/03/26 09:10:19;;;;;;;0.60;0.60;;;;;;;;;;5058846;28;20190;-79
2023/03/26 09:12:57;;;;;;;0.60;0.60;;;;;;;;;;5064348;28;20237;-79
2023/03/26 09:15:34;;;;;;;0.70;0.70;;;;;;;;;;5069014;28;20238;-79
2023/03/26 09:18:00;;;;;;;0.70;0.70;;;;;;;;;;5070699;28;20175;-78
2023/03/26 09:20:26;;;;;;;0.60;0.60;;;;;;;;;;5065306;28;20692;-81
2023/03/26 09:23:07;;;;;;;0.60;0.60;;;;;;;;;;5061886;28;20195;-79
2023/03/26 09:25:40;;;;;;;0.70;0.70;;;;;;;;;;5062128;28;20210;-81
2023/03/26 09:28:18;;;;;;;0.70;0.70;;;;;;;;;;5062598;28;20172;-80
2023/03/26 09:30:53;;;;;;;0.60;0.60;;;;;;;;;;5074075;28;20179;-79
2023/03/26 09:33:37;;;;;;;0.60;0.60;;;;;;;;;;5076073;28;20175;-79
2023/03/26 09:36:06;;;;;;;0.80;0.80;;;;;;;;;;5076556;28;20174;-80
2023/03/26 09:38:43;;;;;;;0.60;0.60;;;;;;;;;;5077236;28;20183;-83
2023/03/26 09:41:28;;;;;;;0.50;0.50;;;;;;;;;;5077886;28;20200;-80
2023/03/26 09:44:12;;;;;;;0.57;0.57;;;;;;;;;;5076283;28;20175;-79
2023/03/26 09:46:47;;;;;;;0.50;0.50;;;;;;;;;;5075787;28;20181;-80
2023/03/26 09:49:21;;;;;;;0.57;0.57;;;;;;;;;;5075476;28;20175;-81
2023/03/26 09:51:55;;;;;;;0.40;0.40;;;;;;;;;;5077553;28;20191;-80
2023/03/26 09:54:31;;;;;;;0.40;0.40;;;;;;;;;;5076550;28;20199;-80
2023/03/26 09:57:16;;;;;;;0.40;0.40;;;;;;;;;;5077162;28;20185;-79
2023/03/26 09:59:54;;;;;;;0.40;0.40;;;;;;;;;;5077900;28;20201;-80
2023/03/26 10:02:20;;;;;;;0.40;0.40;;;;;;;;;;5062901;28;20202;-81
2023/03/26 10:05:03;;;;;;;0.30;0.30;;;;;;;;;;5060046;28;20179;-81
2023/03/26 10:07:48;;;;;;;0.30;0.30;;;;;;;;;;5059737;28;20191;-82
2023/03/26 10:10:26;;;;;;;0.30;0.30;;;;;;;;;;5060949;28;20179;-81
2023/03/26 10:13:03;;;;;;;0.37;0.37;;;;;;;;;;5060497;28;20219;-81
2023/03/26 10:15:48;;;;;;;0.30;0.30;;;;;;;;;;5061621;28;20173;-82
2023/03/26 10:18:13;;;;;;;0.40;0.40;;;;;;;;;;5061820;28;20180;-81
2023/03/26 10:20:46;;;;;;;0.40;0.40;;;;;;;;;;5061128;28;20183;-80
2023/03/26 10:23:12;;;;;;;0.40;0.40;;;;;;;;;;5060636;28;20249;-82
2023/03/26 10:25:53;;;;;;;0.40;0.40;;;;;;;;;;5059898;28;20190;-82
2023/03/26 10:28:24;;;;;;;0.50;0.50;;;;;;;;;;5063089;28;20171;-81
2023/03/26 10:31:10;;;;;;;0.50;0.50;;;;;;;;;;5062057;28;20251;-82
2023/03/26 10:33:48;;;;;;;0.50;0.50;;;;;;;;;;5060987;28;20227;-82
2023/03/26 10:36:24;;;;;;;0.50;0.50;;;;;;;;;;5060823;28;20183;-81
2023/03/26 10:39:02;;;;;;;0.40;0.40;;;;;;;;;;5059559;28;20542;-82
2023/03/26 10:41:50;;;;;;;0.50;0.50;;;;;;;;;;5060721;28;20317;-81
2023/03/26 10:44:34;;;;;;;0.40;0.40;;;;;;;;;;5058869;28;20213;-79
2023/03/26 10:47:12;;;;;;;0.40;0.40;;;;;;;;;;5065150;28;20176;-80
2023/03/26 10:49:48;;;;;;;0.40;0.40;;;;;;;;;;5078771;28;20714;-80
2023/03/26 10:52:19;;;;;;;0.33;0.33;;;;;;;;;;5078609;28;20275;-79
2023/03/26 10:54:45;;;;;;;0.40;0.40;;;;;;;;;;5063826;28;20199;-79
2023/03/26 10:57:20;;;;;;;0.43;0.43;;;;;;;;;;5062265;28;20214;-79
2023/03/26 10:59:46;;;;;;;0.40;0.40;;;;;;;;;;5073115;28;20214;-81
2023/03/26 11:02:29;;;;;;;0.30;0.30;;;;;;;;;;5071106;28;20248;-80
2023/03/26 11:05:01;;;;;;;0.50;0.50;;;;;;;;;;5061636;28;20183;-80
2023/03/26 11:07:36;;;;;;;0.40;0.40;;;;;;;;;;5047440;28;20174;-80
2023/03/26 11:10:11;;;;;;;0.30;0.30;;;;;;;;;;5070530;28;20174;-81
2023/03/26 11:12:46;;;;;;;0.47;0.47;;;;;;;;;;5072981;28;20205;-79
2023/03/26 11:15:17;;;;;;;0.40;0.40;;;;;;;;;;5063983;28;20535;-79
2023/03/26 11:17:51;;;;;;;0.40;0.40;;;;;;;;;;5074205;28;20171;-79
2023/03/26 11:20:26;;;;;;;0.40;0.40;;;;;;;;;;5072913;28;20258;-79
2023/03/26 11:23:04;;;;;;;0.50;0.50;;;;;;;;;;5068751;28;20205;-79
2023/03/26 11:25:46;;;;;;;0.40;0.40;;;;;;;;;;5050741;28;20171;-79
2023/03/26 11:28:16;;;;;;;0.30;0.30;;;;;;;;;;5072641;28;20187;-80
2023/03/26 11:30:42;;;;;;;0.50;0.50;;;;;;;;;;5076350;28;20182;-79
2023/03/26 11:33:10;;;;;;;0.47;0.47;;;;;;;;;;5066545;28;20199;-80
2023/03/26 11:35:38;;;;;;;0.40;0.40;;;;;;;;;;5077938;28;20175;-79
2023/03/26 11:38:36;;;;;;;0.50;0.50;;;;;;;;;;5068656;28;20175;-79
2023/03/26 11:41:03;;;;;;;0.40;0.40;;;;;;;;;;5044996;28;20198;-81
2023/03/26 11:43:32;;;;;;;0.50;0.50;;;;;;;;;;5072761;28;20202;-79
2023/03/26 11:45:59;;;;;;;0.40;0.40;;;;;;;;;;5057871;28;20587;-80
2023/03/26 11:48:28;;;;;;;0.40;0.40;;;;;;;;;;5068864;28;20178;-79
2023/03/26 11:51:04;;;;;;;0.40;0.40;;;;;;;;;;5061566;28;20660;-81
2023/03/26 11:53:33;;;;;;;0.40;0.40;;;;;;;;;;5048158;28;20213;-80
2023/03/26 11:55:59;;;;;;;0.40;0.40;;;;;;;;;;5069874;28;20186;-80
2023/03/26 11:58:55;;;;;;;0.40;0.40;;;;;;;;;;5070902;28;20232;-80
2023/03/26 12:01:31;;;;;;;0.40;0.40;;;;;;;;;;4989676;28;20228;-81
2023/03/26 12:04:02;;;;;;;0.30;0.30;;;;;;;;;;5070607;28;20198;-80
2023/03/26 12:06:28;;;;;;;0.43;0.43;;;;;;;;;;5072200;28;20178;-81
2023/03/26 12:08:55;;;;;;;0.40;0.40;;;;;;;;;;5063683;28;20175;-80
2023/03/26 12:11:30;;;;;;;0.40;0.40;;;;;;;;;;5079527;28;20242;-79
2023/03/26 12:14:00;;;;;;;0.40;0.40;;;;;;;;;;5079212;28;20193;-80
2023/03/26 12:16:26;;;;;;;0.33;0.33;;;;;;;;;;5068410;28;20171;-80
2023/03/26 12:19:00;;;;;;;0.50;0.50;;;;;;;;;;5060113;28;20195;-81
2023/03/26 12:21:26;;;;;;;0.30;0.30;;;;;;;;;;5058899;28;20179;-81
2023/03/26 12:23:55;;;;;;;0.40;0.40;;;;;;;;;;5058668;28;20199;-80
2023/03/26 12:26:33;;;;;;;0.50;0.50;;;;;;;;;;5058525;28;20594;-81
2023/03/26 12:29:04;;;;;;;0.30;0.30;;;;;;;;;;5059251;28;20174;-81
2023/03/26 12:31:41;;;;;;;0.40;0.40;;;;;;;;;;5070128;28;20211;-80
2023/03/26 12:34:13;;;;;;;0.50;0.50;;;;;;;;;;5067823;28;20194;-81
2023/03/26 12:36:40;;;;;;;0.40;0.40;;;;;;;;;;5069547;28;20175;-79
2023/03/26 12:39:24;;;;;;;0.50;0.50;;;;;;;;;;5086511;28;20167;-80
2023/03/26 12:41:55;;;;;;;0.30;0.30;;;;;;;;;;5080664;28;20587;-78
2023/03/26 12:44:25;;;;;;;0.40;0.40;;;;;;;;;;5077098;28;20209;-79
2023/03/26 12:46:54;;;;;;;0.43;0.43;;;;;;;;;;5086339;28;20177;-78
2023/03/26 12:49:20;;;;;;;0.50;0.50;;;;;;;;;;5075659;28;20205;-82
2023/03/26 12:52:09;;;;;;;0.40;0.40;;;;;;;;;;5089097;28;20206;-78
2023/03/26 12:54:48;;;;;;;0.40;0.40;;;;;;;;;;5070199;28;20230;-79
2023/03/26 12:57:23;;;;;;;0.30;0.30;;;;;;;;;;5047248;28;20639;-78
2023/03/26 13:00:09;;;;;;;0.40;0.40;;;;;;;;;;5067349;28;20204;-78
2023/03/26 13:02:38;;;;;;;0.50;0.50;;;;;;;;;;5071310;28;20197;-78
2023/03/26 13:05:16;;;;;;;0.50;0.50;;;;;;;;;;5082243;28;20175;-79
2023/03/26 13:08:02;;;;;;;0.50;0.50;;;;;;;;;;5079177;28;20177;-79
2023/03/26 13:10:35;;;;;;;0.50;0.50;;;;;;;;;;5075151;28;20193;-79
2023/03/26 13:13:16;;;;;;;0.40;0.40;;;;;;;;;;5083143;28;20237;-78
2023/03/26 13:15:46;;;;;;;0.40;0.40;;;;;;;;;;5079035;28;20167;-78
2023/03/26 13:18:22;;;;;;;0.40;0.40;;;;;;;;;;5077915;28;20266;-78
2023/03/26 13:20:50;;;;;;;0.40;0.40;;;;;;;;;;5089273;28;20162;-79
2023/03/26 13:23:27;;;;;;;0.40;0.40;;;;;;;;;;5076817;28;20190;-79
2023/03/26 13:25:56;;;;;;;0.60;0.60;;;;;;;;;;5076363;28;20311;-78
2023/03/26 13:28:28;;;;;;;0.40;0.40;;;;;;;;;;5082201;28;20174;-78
2023/03/26 13:30:54;;;;;;;0.40;0.40;;;;;;;;;;5071827;28;20163;-78
2023/03/26 13:33:20;;;;;;;0.50;0.50;;;;;;;;;;5092327;28;20267;-79
2023/03/26 13:35:52;;;;;;;0.50;0.50;;;;;;;;;;5092907;28;20243;-80
2023/03/26 13:38:42;;;;;;;0.40;0.40;;;;;;;;;;5076203;28;20167;-84
2023/03/26 13:41:23;;;;;;;0.57;0.57;;;;;;;;;;5075192;28;20209;-81
2023/03/26 13:44:09;;;;;;;0.37;0.37;;;;;;;;;;5074589;28;20199;-81
2023/03/26 13:46:40;;;;;;;0.47;0.47;;;;;;;;;;5035963;28;20175;-80
2023/03/26 13:49:14;;;;;;;0.50;0.50;;;;;;;;;;5075421;28;20167;-81
2023/03/26 13:51:46;;;;;;;0.50;0.50;;;;;;;;;;5075057;28;20230;-81
2023/03/26 13:54:30;;;;;;;0.50;0.50;;;;;;;;;;5075327;28;20203;-81
2023/03/26 13:57:02;;;;;;;0.50;0.50;;;;;;;;;;5078788;28;20209;-81
2023/03/26 13:59:31;;;;;;;0.50;0.50;;;;;;;;;;5079306;28;20187;-82
2023/03/26 14:02:00;;;;;;;0.50;0.50;;;;;;;;;;5079408;28;20167;-81
2023/03/26 14:04:32;;;;;;;0.43;0.43;;;;;;;;;;5079002;28;20230;-83
2023/03/26 14:06:58;;;;;;;0.40;0.40;;;;;;;;;;5076103;28;20182;-82
2023/03/26 14:09:24;;;;;;;0.40;0.40;;;;;;;;;;5067984;28;20171;-82
2023/03/26 14:11:57;;;;;;;0.47;0.47;;;;;;;;;;5070915;28;20214;-81
2023/03/26 14:14:34;;;;;;;0.40;0.40;;;;;;;;;;5065274;28;20420;-83
2023/03/26 14:17:12;;;;;;;0.40;0.40;;;;;;;;;;5055625;28;20301;-82
2023/03/26 14:20:07;;;;;;;0.40;0.40;;;;;;;;;;5054530;28;20190;-82
2023/03/26 14:22:53;;;;;;;0.53;0.53;;;;;;;;;;5000423;28;20201;-81
2023/03/26 14:25:19;;;;;;;0.50;0.50;;;;;;;;;;5057410;28;20198;-81
2023/03/26 14:28:06;;;;;;;0.40;0.40;;;;;;;;;;5057193;28;20657;-82
2023/03/26 14:30:35;;;;;;;0.60;0.60;;;;;;;;;;5057307;28;20209;-79
2023/03/26 14:33:04;;;;;;;0.40;0.40;;;;;;;;;;5056160;28;20268;-80
2023/03/26 14:35:49;;;;;;;0.60;0.60;;;;;;;;;;5056089;28;20182;-80
2023/03/26 14:38:36;;;;;;;0.50;0.50;;;;;;;;;;5039767;28;20312;-80
2023/03/26 14:41:19;;;;;;;0.50;0.50;;;;;;;;;;5059049;28;20717;-79
2023/03/26 14:44:05;;;;;;;0.50;0.50;;;;;;;;;;5056781;28;20195;-80
2023/03/26 14:46:30;;;;;;;0.60;0.60;;;;;;;;;;5043068;28;20179;-81
2023/03/26 14:49:15;;;;;;;0.70;0.70;;;;;;;;;;5039716;28;20187;-81
2023/03/26 14:51:56;;;;;;;0.60;0.60;;;;;;;;;;5045378;28;20579;-80
2023/03/26 14:54:25;;;;;;;0.60;0.60;;;;;;;;;;5057272;28;20206;-80
2023/03/26 14:56:58;;;;;;;0.70;0.70;;;;;;;;;;5057405;28;20179;-80
2023/03/26 14:59:33;;;;;;;0.60;0.60;;;;;;;;;;5056973;28;20206;-80
2023/03/26 15:02:18;;;;;;;0.60;0.60;;;;;;;;;;5058123;28;20181;-81
2023/03/26 15:04:53;;;;;;;0.70;0.70;;;;;;;;;;5056991;28;20191;-80
2023/03/26 15:07:22;;;;;;;0.70;0.70;;;;;;;;;;5058151;28;20210;-81
2023/03/26 15:09:54;;;;;;;0.70;0.70;;;;;;;;;;5037185;28;20240;-80